sensor_id;sensor_type;location;lat;lon;timestamp;P1;durP1;ratioP1;P2;durP2;ratioP2
17993;SDS011;9122;48.406;9.984;2024-01-16T00:00:05;3.13;;;2.93;;
17993;SDS011;9122;48.406;9.984;2024-01-16T00:02:51;3.67;;;3.37;;
17993;SDS011;9122;48.406;9.984;2024-01-16T00:05:35;3.80;;;3.17;;
17993;SDS011;9122;48.406;9.984;2024-01-16T00:08:20;3.30;;;3.00;;
17993;SDS011;9122;48.406;9.984;2024-01-16T00:11:04;3.60;;;3.30;;
17993;SDS011;9122;48.406;9.984;2024-01-16T00:13:48;3.63;;;3.33;;
17993;SDS011;9122;48.406;9.984;2024-01-16T00:16:32;3.70;;;3.40;;
17993;SDS011;9122;48.406;9.984;2024-01-16T00:19:16;3.20;;;2.97;;
17993;SDS011;9122;48.406;9.984;2024-01-16T00:22:01;3.80;;;3.50;;
17993;SDS011;9122;48.406;9.984;2024-01-16T00:24:47;4.67;;;4.27;;
17993;SDS011;9122;48.406;9.984;2024-01-16T00:27:31;5.27;;;4.03;;
17993;SDS011;9122;48.406;9.984;2024-01-16T00:30:15;4.43;;;3.80;;
17993;SDS011;9122;48.406;9.984;2024-01-16T00:33:00;4.43;;;4.03;;
17993;SDS011;9122;48.406;9.984;2024-01-16T00:35:46;4.80;;;3.63;;
17993;SDS011;9122;48.406;9.984;2024-01-16T00:38:32;3.80;;;3.50;;
17993;SDS011;9122;48.406;9.984;2024-01-16T00:41:17;4.60;;;3.47;;
17993;SDS011;9122;48.406;9.984;2024-01-16T00:44:02;3.77;;;3.40;;
17993;SDS011;9122;48.406;9.984;2024-01-16T00:46:46;4.27;;;3.87;;
17993;SDS011;9122;48.406;9.984;2024-01-16T00:49:31;4.70;;;4.27;;
17993;SDS011;9122;48.406;9.984;2024-01-16T00:52:15;5.67;;;3.83;;
17993;SDS011;9122;48.406;9.984;2024-01-16T00:54:59;6.00;;;4.37;;
17993;SDS011;9122;48.406;9.984;2024-01-16T00:57:44;5.20;;;3.83;;
17993;SDS011;9122;48.406;9.984;2024-01-16T01:00:29;4.50;;;3.80;;
17993;SDS011;9122;48.406;9.984;2024-01-16T01:03:15;3.80;;;3.50;;
17993;SDS011;9122;48.406;9.984;2024-01-16T01:05:59;4.00;;;3.70;;
17993;SDS011;9122;48.406;9.984;2024-01-16T01:08:44;3.63;;;3.33;;
17993;SDS011;9122;48.406;9.984;2024-01-16T01:11:29;4.30;;;3.90;;
17993;SDS011;9122;48.406;9.984;2024-01-16T01:14:13;4.63;;;4.10;;
17993;SDS011;9122;48.406;9.984;2024-01-16T01:16:57;3.90;;;3.50;;
17993;SDS011;9122;48.406;9.984;2024-01-16T01:19:42;4.10;;;3.70;;
17993;SDS011;9122;48.406;9.984;2024-01-16T01:22:27;4.73;;;4.00;;
17993;SDS011;9122;48.406;9.984;2024-01-16T01:25:11;4.47;;;3.97;;
17993;SDS011;9122;48.406;9.984;2024-01-16T01:27:56;3.87;;;3.57;;
17993;SDS011;9122;48.406;9.984;2024-01-16T01:30:40;4.20;;;3.80;;
17993;SDS011;9122;48.406;9.984;2024-01-16T01:33:25;3.90;;;3.50;;
17993;SDS011;9122;48.406;9.984;2024-01-16T01:36:09;4.50;;;4.10;;
17993;SDS011;9122;48.406;9.984;2024-01-16T01:38:53;3.53;;;3.23;;
17993;SDS011;9122;48.406;9.984;2024-01-16T01:41:38;4.83;;;3.77;;
17993;SDS011;9122;48.406;9.984;2024-01-16T01:44:22;4.03;;;3.63;;
17993;SDS011;9122;48.406;9.984;2024-01-16T01:47:08;3.73;;;3.43;;
17993;SDS011;9122;48.406;9.984;2024-01-16T01:49:53;4.90;;;4.00;;
17993;SDS011;9122;48.406;9.984;2024-01-16T01:52:40;5.07;;;4.20;;
17993;SDS011;9122;48.406;9.984;2024-01-16T01:55:25;4.83;;;4.43;;
17993;SDS011;9122;48.406;9.984;2024-01-16T01:58:10;4.67;;;3.73;;
17993;SDS011;9122;48.406;9.984;2024-01-16T02:00:55;3.73;;;3.40;;
17993;SDS011;9122;48.406;9.984;2024-01-16T02:03:43;4.10;;;3.70;;
17993;SDS011;9122;48.406;9.984;2024-01-16T02:06:28;4.17;;;3.80;;
17993;SDS011;9122;48.406;9.984;2024-01-16T02:09:12;3.80;;;3.50;;
17993;SDS011;9122;48.406;9.984;2024-01-16T02:11:57;4.90;;;3.93;;
17993;SDS011;9122;48.406;9.984;2024-01-16T02:14:41;4.27;;;3.40;;
17993;SDS011;9122;48.406;9.984;2024-01-16T02:17:26;4.47;;;3.43;;
17993;SDS011;9122;48.406;9.984;2024-01-16T02:20:10;4.50;;;4.10;;
17993;SDS011;9122;48.406;9.984;2024-01-16T02:22:54;4.30;;;3.40;;
17993;SDS011;9122;48.406;9.984;2024-01-16T02:25:43;3.87;;;3.40;;
17993;SDS011;9122;48.406;9.984;2024-01-16T02:28:28;4.00;;;3.47;;
17993;SDS011;9122;48.406;9.984;2024-01-16T02:31:13;3.43;;;3.13;;
17993;SDS011;9122;48.406;9.984;2024-01-16T02:33:57;3.37;;;2.97;;
17993;SDS011;9122;48.406;9.984;2024-01-16T02:36:42;3.30;;;3.00;;
17993;SDS011;9122;48.406;9.984;2024-01-16T02:39:26;3.73;;;3.43;;
17993;SDS011;9122;48.406;9.984;2024-01-16T02:42:10;4.43;;;3.90;;
17993;SDS011;9122;48.406;9.984;2024-01-16T02:44:55;4.93;;;3.37;;
17993;SDS011;9122;48.406;9.984;2024-01-16T02:47:39;3.53;;;3.20;;
17993;SDS011;9122;48.406;9.984;2024-01-16T02:50:24;4.10;;;3.40;;
17993;SDS011;9122;48.406;9.984;2024-01-16T02:53:09;4.23;;;3.67;;
17993;SDS011;9122;48.406;9.984;2024-01-16T02:55:53;3.90;;;3.50;;
17993;SDS011;9122;48.406;9.984;2024-01-16T02:58:38;4.07;;;3.53;;
17993;SDS011;9122;48.406;9.984;2024-01-16T03:01:22;4.87;;;4.07;;
17993;SDS011;9122;48.406;9.984;2024-01-16T03:04:07;4.13;;;3.27;;
17993;SDS011;9122;48.406;9.984;2024-01-16T03:06:51;4.27;;;3.70;;
17993;SDS011;9122;48.406;9.984;2024-01-16T03:09:35;3.73;;;3.43;;
17993;SDS011;9122;48.406;9.984;2024-01-16T03:12:20;4.97;;;3.50;;
17993;SDS011;9122;48.406;9.984;2024-01-16T03:15:04;3.97;;;3.67;;
17993;SDS011;9122;48.406;9.984;2024-01-16T03:17:49;4.87;;;3.27;;
17993;SDS011;9122;48.406;9.984;2024-01-16T03:20:34;3.43;;;3.13;;
17993;SDS011;9122;48.406;9.984;2024-01-16T03:23:19;4.77;;;3.20;;
17993;SDS011;9122;48.406;9.984;2024-01-16T03:26:03;3.63;;;3.00;;
17993;SDS011;9122;48.406;9.984;2024-01-16T03:28:47;3.60;;;3.30;;
17993;SDS011;9122;48.406;9.984;2024-01-16T03:31:31;4.27;;;3.63;;
17993;SDS011;9122;48.406;9.984;2024-01-16T03:34:16;3.87;;;3.30;;
17993;SDS011;9122;48.406;9.984;2024-01-16T03:37:01;3.33;;;3.03;;
17993;SDS011;9122;48.406;9.984;2024-01-16T03:39:45;3.10;;;2.87;;
17993;SDS011;9122;48.406;9.984;2024-01-16T03:42:30;3.53;;;3.20;;
17993;SDS011;9122;48.406;9.984;2024-01-16T03:45:14;4.33;;;3.17;;
17993;SDS011;9122;48.406;9.984;2024-01-16T03:47:59;4.97;;;3.40;;
17993;SDS011;9122;48.406;9.984;2024-01-16T03:50:43;4.77;;;3.40;;
17993;SDS011;9122;48.406;9.984;2024-01-16T03:53:29;4.67;;;3.03;;
17993;SDS011;9122;48.406;9.984;2024-01-16T03:56:14;3.97;;;3.20;;
17993;SDS011;9122;48.406;9.984;2024-01-16T03:58:59;4.03;;;3.53;;
17993;SDS011;9122;48.406;9.984;2024-01-16T04:01:44;6.63;;;3.93;;
17993;SDS011;9122;48.406;9.984;2024-01-16T04:04:29;3.30;;;3.10;;
17993;SDS011;9122;48.406;9.984;2024-01-16T04:07:13;7.73;;;3.27;;
17993;SDS011;9122;48.406;9.984;2024-01-16T04:09:57;3.23;;;2.93;;
17993;SDS011;9122;48.406;9.984;2024-01-16T04:12:42;5.03;;;3.53;;
17993;SDS011;9122;48.406;9.984;2024-01-16T04:15:26;4.87;;;2.93;;
17993;SDS011;9122;48.406;9.984;2024-01-16T04:18:12;4.33;;;3.37;;
17993;SDS011;9122;48.406;9.984;2024-01-16T04:20:56;4.33;;;3.03;;
17993;SDS011;9122;48.406;9.984;2024-01-16T04:23:41;4.33;;;2.83;;
17993;SDS011;9122;48.406;9.984;2024-01-16T04:26:25;3.77;;;3.47;;
17993;SDS011;9122;48.406;9.984;2024-01-16T04:29:10;4.47;;;3.30;;
17993;SDS011;9122;48.406;9.984;2024-01-16T04:31:56;4.00;;;3.70;;
17993;SDS011;9122;48.406;9.984;2024-01-16T04:34:41;4.97;;;3.37;;
17993;SDS011;9122;48.406;9.984;2024-01-16T04:37:25;4.40;;;3.93;;
17993;SDS011;9122;48.406;9.984;2024-01-16T04:40:10;4.43;;;3.70;;
17993;SDS011;9122;48.406;9.984;2024-01-16T04:42:54;4.00;;;3.60;;
17993;SDS011;9122;48.406;9.984;2024-01-16T04:45:38;4.37;;;3.23;;
17993;SDS011;9122;48.406;9.984;2024-01-16T04:48:22;4.43;;;3.60;;
17993;SDS011;9122;48.406;9.984;2024-01-16T04:51:06;4.97;;;4.00;;
17993;SDS011;9122;48.406;9.984;2024-01-16T04:53:51;4.07;;;3.67;;
17993;SDS011;9122;48.406;9.984;2024-01-16T04:56:36;4.80;;;4.00;;
17993;SDS011;9122;48.406;9.984;2024-01-16T04:59:20;7.67;;;4.87;;
17993;SDS011;9122;48.406;9.984;2024-01-16T05:02:07;5.63;;;3.87;;
17993;SDS011;9122;48.406;9.984;2024-01-16T05:04:52;8.97;;;3.93;;
17993;SDS011;9122;48.406;9.984;2024-01-16T05:07:37;4.97;;;4.03;;
17993;SDS011;9122;48.406;9.984;2024-01-16T05:10:21;5.07;;;3.40;;
17993;SDS011;9122;48.406;9.984;2024-01-16T05:13:06;4.13;;;3.73;;
17993;SDS011;9122;48.406;9.984;2024-01-16T05:15:50;5.10;;;3.93;;
17993;SDS011;9122;48.406;9.984;2024-01-16T05:18:35;4.90;;;4.20;;
17993;SDS011;9122;48.406;9.984;2024-01-16T05:21:19;4.63;;;4.10;;
17993;SDS011;9122;48.406;9.984;2024-01-16T05:24:04;4.57;;;3.57;;
17993;SDS011;9122;48.406;9.984;2024-01-16T05:26:48;4.77;;;4.30;;
17993;SDS011;9122;48.406;9.984;2024-01-16T05:29:33;6.83;;;4.50;;
17993;SDS011;9122;48.406;9.984;2024-01-16T05:32:17;4.07;;;3.67;;
17993;SDS011;9122;48.406;9.984;2024-01-16T05:35:01;5.93;;;4.07;;
17993;SDS011;9122;48.406;9.984;2024-01-16T05:37:45;4.50;;;4.10;;
17993;SDS011;9122;48.406;9.984;2024-01-16T05:40:30;4.80;;;4.00;;
17993;SDS011;9122;48.406;9.984;2024-01-16T05:43:15;4.17;;;3.67;;
17993;SDS011;9122;48.406;9.984;2024-01-16T05:45:59;4.67;;;4.03;;
17993;SDS011;9122;48.406;9.984;2024-01-16T05:48:44;5.30;;;4.03;;
17993;SDS011;9122;48.406;9.984;2024-01-16T05:51:28;3.70;;;3.40;;
17993;SDS011;9122;48.406;9.984;2024-01-16T05:54:13;6.03;;;4.33;;
17993;SDS011;9122;48.406;9.984;2024-01-16T05:56:57;6.57;;;3.97;;
17993;SDS011;9122;48.406;9.984;2024-01-16T05:59:42;5.03;;;4.07;;
17993;SDS011;9122;48.406;9.984;2024-01-16T06:02:26;4.83;;;4.33;;
17993;SDS011;9122;48.406;9.984;2024-01-16T06:05:11;4.53;;;3.87;;
17993;SDS011;9122;48.406;9.984;2024-01-16T06:07:56;5.67;;;4.87;;
17993;SDS011;9122;48.406;9.984;2024-01-16T06:10:40;7.17;;;4.80;;
17993;SDS011;9122;48.406;9.984;2024-01-16T06:13:25;4.63;;;4.23;;
17993;SDS011;9122;48.406;9.984;2024-01-16T06:16:09;5.70;;;4.07;;
17993;SDS011;9122;48.406;9.984;2024-01-16T06:18:56;6.20;;;4.33;;
17993;SDS011;9122;48.406;9.984;2024-01-16T06:21:40;5.00;;;4.50;;
17993;SDS011;9122;48.406;9.984;2024-01-16T06:24:25;4.60;;;4.20;;
17993;SDS011;9122;48.406;9.984;2024-01-16T06:27:10;7.67;;;5.33;;
17993;SDS011;9122;48.406;9.984;2024-01-16T06:29:57;6.10;;;4.80;;
17993;SDS011;9122;48.406;9.984;2024-01-16T06:32:42;6.87;;;4.80;;
17993;SDS011;9122;48.406;9.984;2024-01-16T06:35:26;7.77;;;5.90;;
17993;SDS011;9122;48.406;9.984;2024-01-16T06:38:12;6.10;;;4.40;;
17993;SDS011;9122;48.406;9.984;2024-01-16T06:40:57;6.47;;;5.37;;
17993;SDS011;9122;48.406;9.984;2024-01-16T06:43:48;7.20;;;5.77;;
17993;SDS011;9122;48.406;9.984;2024-01-16T06:46:33;8.23;;;5.10;;
17993;SDS011;9122;48.406;9.984;2024-01-16T06:49:19;4.63;;;4.10;;
17993;SDS011;9122;48.406;9.984;2024-01-16T06:52:03;7.40;;;5.23;;
17993;SDS011;9122;48.406;9.984;2024-01-16T06:54:48;6.57;;;5.47;;
17993;SDS011;9122;48.406;9.984;2024-01-16T06:57:32;5.63;;;5.00;;
17993;SDS011;9122;48.406;9.984;2024-01-16T07:00:16;5.70;;;5.13;;
17993;SDS011;9122;48.406;9.984;2024-01-16T07:03:01;4.83;;;4.30;;
17993;SDS011;9122;48.406;9.984;2024-01-16T07:05:46;4.80;;;4.33;;
17993;SDS011;9122;48.406;9.984;2024-01-16T07:08:30;5.90;;;4.47;;
17993;SDS011;9122;48.406;9.984;2024-01-16T07:11:15;5.10;;;4.27;;
17993;SDS011;9122;48.406;9.984;2024-01-16T07:14:00;5.20;;;4.70;;
17993;SDS011;9122;48.406;9.984;2024-01-16T07:16:44;8.57;;;4.60;;
17993;SDS011;9122;48.406;9.984;2024-01-16T07:19:28;6.10;;;4.93;;
17993;SDS011;9122;48.406;9.984;2024-01-16T07:22:13;6.33;;;5.13;;
17993;SDS011;9122;48.406;9.984;2024-01-16T07:24:58;7.40;;;4.80;;
17993;SDS011;9122;48.406;9.984;2024-01-16T07:27:42;4.30;;;4.00;;
17993;SDS011;9122;48.406;9.984;2024-01-16T07:30:30;4.53;;;4.13;;
17993;SDS011;9122;48.406;9.984;2024-01-16T07:33:15;7.07;;;5.13;;
17993;SDS011;9122;48.406;9.984;2024-01-16T07:35:59;5.20;;;4.70;;
17993;SDS011;9122;48.406;9.984;2024-01-16T07:38:44;5.27;;;4.87;;
17993;SDS011;9122;48.406;9.984;2024-01-16T07:41:28;7.67;;;6.97;;
17993;SDS011;9122;48.406;9.984;2024-01-16T07:44:12;6.93;;;6.33;;
17993;SDS011;9122;48.406;9.984;2024-01-16T07:46:56;5.27;;;4.43;;
17993;SDS011;9122;48.406;9.984;2024-01-16T07:49:41;4.87;;;4.17;;
17993;SDS011;9122;48.406;9.984;2024-01-16T07:52:27;5.30;;;4.57;;
17993;SDS011;9122;48.406;9.984;2024-01-16T07:55:12;5.30;;;4.40;;
17993;SDS011;9122;48.406;9.984;2024-01-16T07:57:56;4.30;;;3.90;;
17993;SDS011;9122;48.406;9.984;2024-01-16T08:00:41;6.03;;;4.80;;
17993;SDS011;9122;48.406;9.984;2024-01-16T08:03:25;6.47;;;4.40;;
17993;SDS011;9122;48.406;9.984;2024-01-16T08:06:10;8.53;;;5.50;;
17993;SDS011;9122;48.406;9.984;2024-01-16T08:08:54;6.57;;;4.87;;
17993;SDS011;9122;48.406;9.984;2024-01-16T08:11:38;6.90;;;4.73;;
17993;SDS011;9122;48.406;9.984;2024-01-16T08:14:23;5.87;;;4.67;;
17993;SDS011;9122;48.406;9.984;2024-01-16T08:17:08;4.67;;;4.23;;
17993;SDS011;9122;48.406;9.984;2024-01-16T08:19:52;5.07;;;4.57;;
17993;SDS011;9122;48.406;9.984;2024-01-16T08:22:37;7.40;;;5.37;;
17993;SDS011;9122;48.406;9.984;2024-01-16T08:25:21;5.43;;;4.93;;
17993;SDS011;9122;48.406;9.984;2024-01-16T08:28:06;5.33;;;4.83;;
17993;SDS011;9122;48.406;9.984;2024-01-16T08:30:50;5.47;;;4.93;;
17993;SDS011;9122;48.406;9.984;2024-01-16T08:33:35;7.00;;;5.57;;
17993;SDS011;9122;48.406;9.984;2024-01-16T08:36:19;6.20;;;5.60;;
17993;SDS011;9122;48.406;9.984;2024-01-16T08:39:03;7.60;;;5.47;;
17993;SDS011;9122;48.406;9.984;2024-01-16T08:41:49;6.93;;;5.27;;
17993;SDS011;9122;48.406;9.984;2024-01-16T08:44:34;6.43;;;5.83;;
17993;SDS011;9122;48.406;9.984;2024-01-16T08:47:20;8.27;;;6.33;;
17993;SDS011;9122;48.406;9.984;2024-01-16T08:50:07;8.60;;;6.47;;
17993;SDS011;9122;48.406;9.984;2024-01-16T08:52:52;7.90;;;6.63;;
17993;SDS011;9122;48.406;9.984;2024-01-16T08:55:37;8.33;;;6.17;;
17993;SDS011;9122;48.406;9.984;2024-01-16T08:58:21;7.67;;;6.70;;
17993;SDS011;9122;48.406;9.984;2024-01-16T09:01:05;7.57;;;6.30;;
17993;SDS011;9122;48.406;9.984;2024-01-16T09:03:50;7.50;;;6.73;;
17993;SDS011;9122;48.406;9.984;2024-01-16T09:06:37;8.33;;;7.27;;
17993;SDS011;9122;48.406;9.984;2024-01-16T09:09:22;9.27;;;7.17;;
17993;SDS011;9122;48.406;9.984;2024-01-16T09:12:06;8.80;;;6.80;;
17993;SDS011;9122;48.406;9.984;2024-01-16T09:14:51;8.47;;;7.63;;
17993;SDS011;9122;48.406;9.984;2024-01-16T09:17:35;7.60;;;6.90;;
17993;SDS011;9122;48.406;9.984;2024-01-16T09:20:25;8.07;;;6.30;;
17993;SDS011;9122;48.406;9.984;2024-01-16T09:23:24;6.80;;;6.20;;
17993;SDS011;9122;48.406;9.984;2024-01-16T09:26:08;7.33;;;6.63;;
17993;SDS011;9122;48.406;9.984;2024-01-16T09:28:52;8.23;;;6.70;;
17993;SDS011;9122;48.406;9.984;2024-01-16T09:31:36;9.07;;;6.67;;
17993;SDS011;9122;48.406;9.984;2024-01-16T09:34:21;9.17;;;7.47;;
17993;SDS011;9122;48.406;9.984;2024-01-16T09:37:05;7.53;;;6.43;;
17993;SDS011;9122;48.406;9.984;2024-01-16T09:39:50;8.47;;;6.77;;
17993;SDS011;9122;48.406;9.984;2024-01-16T09:42:34;9.10;;;6.90;;
17993;SDS011;9122;48.406;9.984;2024-01-16T09:45:19;10.30;;;7.17;;
17993;SDS011;9122;48.406;9.984;2024-01-16T09:48:07;7.47;;;6.40;;
17993;SDS011;9122;48.406;9.984;2024-01-16T09:50:53;8.00;;;7.17;;
17993;SDS011;9122;48.406;9.984;2024-01-16T09:53:37;10.60;;;7.77;;
17993;SDS011;9122;48.406;9.984;2024-01-16T09:56:22;8.70;;;6.30;;
17993;SDS011;9122;48.406;9.984;2024-01-16T09:59:12;7.23;;;6.53;;
17993;SDS011;9122;48.406;9.984;2024-01-16T10:02:01;8.40;;;6.73;;
17993;SDS011;9122;48.406;9.984;2024-01-16T10:04:50;7.83;;;6.67;;
17993;SDS011;9122;48.406;9.984;2024-01-16T10:07:38;8.70;;;7.17;;
17993;SDS011;9122;48.406;9.984;2024-01-16T10:10:23;10.43;;;6.93;;
17993;SDS011;9122;48.406;9.984;2024-01-16T10:13:11;8.90;;;7.80;;
17993;SDS011;9122;48.406;9.984;2024-01-16T10:15:58;13.93;;;7.30;;
17993;SDS011;9122;48.406;9.984;2024-01-16T10:18:42;7.37;;;6.67;;
17993;SDS011;9122;48.406;9.984;2024-01-16T10:21:27;9.97;;;7.50;;
17993;SDS011;9122;48.406;9.984;2024-01-16T10:24:15;9.80;;;7.33;;
17993;SDS011;9122;48.406;9.984;2024-01-16T10:27:00;9.80;;;6.83;;
17993;SDS011;9122;48.406;9.984;2024-01-16T10:29:55;7.93;;;6.77;;
17993;SDS011;9122;48.406;9.984;2024-01-16T10:32:43;7.03;;;6.23;;
17993;SDS011;9122;48.406;9.984;2024-01-16T10:35:27;7.40;;;6.70;;
17993;SDS011;9122;48.406;9.984;2024-01-16T10:38:13;9.47;;;6.43;;
17993;SDS011;9122;48.406;9.984;2024-01-16T10:41:10;7.30;;;6.00;;
17993;SDS011;9122;48.406;9.984;2024-01-16T10:44:06;6.07;;;5.50;;
17993;SDS011;9122;48.406;9.984;2024-01-16T10:46:51;6.70;;;6.00;;
17993;SDS011;9122;48.406;9.984;2024-01-16T10:49:35;7.43;;;6.63;;
17993;SDS011;9122;48.406;9.984;2024-01-16T10:52:20;7.27;;;6.33;;
17993;SDS011;9122;48.406;9.984;2024-01-16T10:55:11;7.30;;;6.60;;
17993;SDS011;9122;48.406;9.984;2024-01-16T10:58:22;7.10;;;6.33;;
17993;SDS011;9122;48.406;9.984;2024-01-16T11:01:10;8.40;;;6.63;;
17993;SDS011;9122;48.406;9.984;2024-01-16T11:03:56;7.53;;;6.67;;
17993;SDS011;9122;48.406;9.984;2024-01-16T11:06:42;7.93;;;5.97;;
17993;SDS011;9122;48.406;9.984;2024-01-16T11:09:28;11.23;;;7.03;;
17993;SDS011;9122;48.406;9.984;2024-01-16T11:12:13;7.27;;;6.57;;
17993;SDS011;9122;48.406;9.984;2024-01-16T11:15:00;8.53;;;7.37;;
17993;SDS011;9122;48.406;9.984;2024-01-16T11:17:47;8.10;;;7.03;;
17993;SDS011;9122;48.406;9.984;2024-01-16T11:20:33;7.23;;;6.53;;
17993;SDS011;9122;48.406;9.984;2024-01-16T11:23:19;7.80;;;7.00;;
17993;SDS011;9122;48.406;9.984;2024-01-16T11:29:33;9.90;;;6.80;;
17993;SDS011;9122;48.406;9.984;2024-01-16T11:32:35;10.97;;;6.60;;
17993;SDS011;9122;48.406;9.984;2024-01-16T11:35:31;8.67;;;7.00;;
17993;SDS011;9122;48.406;9.984;2024-01-16T11:38:18;6.87;;;6.23;;
17993;SDS011;9122;48.406;9.984;2024-01-16T11:41:05;8.00;;;6.47;;
17993;SDS011;9122;48.406;9.984;2024-01-16T11:43:50;6.77;;;6.17;;
17993;SDS011;9122;48.406;9.984;2024-01-16T11:49:44;6.17;;;5.43;;
17993;SDS011;9122;48.406;9.984;2024-01-16T11:52:42;6.87;;;6.17;;
17993;SDS011;9122;48.406;9.984;2024-01-16T12:01:17;5.40;;;4.90;;
17993;SDS011;9122;48.406;9.984;2024-01-16T12:06:57;6.97;;;5.10;;
17993;SDS011;9122;48.406;9.984;2024-01-16T12:09:42;5.27;;;4.77;;
17993;SDS011;9122;48.406;9.984;2024-01-16T12:12:27;4.13;;;3.73;;
17993;SDS011;9122;48.406;9.984;2024-01-16T12:15:18;4.17;;;3.40;;
17993;SDS011;9122;48.406;9.984;2024-01-16T12:18:04;4.77;;;3.50;;
17993;SDS011;9122;48.406;9.984;2024-01-16T12:20:48;4.90;;;3.17;;
17993;SDS011;9122;48.406;9.984;2024-01-16T12:23:33;2.97;;;2.53;;
17993;SDS011;9122;48.406;9.984;2024-01-16T12:26:21;4.03;;;3.10;;
17993;SDS011;9122;48.406;9.984;2024-01-16T12:29:06;3.43;;;3.10;;
17993;SDS011;9122;48.406;9.984;2024-01-16T12:31:51;3.10;;;2.67;;
17993;SDS011;9122;48.406;9.984;2024-01-16T12:34:51;4.77;;;3.00;;
17993;SDS011;9122;48.406;9.984;2024-01-16T12:37:36;4.10;;;2.50;;
17993;SDS011;9122;48.406;9.984;2024-01-16T12:40:20;2.30;;;2.10;;
17993;SDS011;9122;48.406;9.984;2024-01-16T12:43:04;3.70;;;2.73;;
17993;SDS011;9122;48.406;9.984;2024-01-16T12:45:56;2.63;;;2.17;;
17993;SDS011;9122;48.406;9.984;2024-01-16T12:48:41;2.70;;;2.50;;
17993;SDS011;9122;48.406;9.984;2024-01-16T12:51:25;2.27;;;2.07;;
17993;SDS011;9122;48.406;9.984;2024-01-16T12:54:13;3.00;;;2.70;;
17993;SDS011;9122;48.406;9.984;2024-01-16T12:56:59;2.60;;;2.40;;
17993;SDS011;9122;48.406;9.984;2024-01-16T12:59:44;3.70;;;2.90;;
17993;SDS011;9122;48.406;9.984;2024-01-16T13:02:28;3.97;;;2.43;;
17993;SDS011;9122;48.406;9.984;2024-01-16T13:05:14;4.47;;;3.23;;
17993;SDS011;9122;48.406;9.984;2024-01-16T13:08:04;4.07;;;3.67;;
17993;SDS011;9122;48.406;9.984;2024-01-16T13:11:01;3.57;;;3.30;;
17993;SDS011;9122;48.406;9.984;2024-01-16T13:13:51;3.23;;;2.93;;
17993;SDS011;9122;48.406;9.984;2024-01-16T13:16:51;3.87;;;3.30;;
17993;SDS011;9122;48.406;9.984;2024-01-16T13:19:39;3.83;;;3.30;;
17993;SDS011;9122;48.406;9.984;2024-01-16T13:22:28;3.20;;;2.90;;
17993;SDS011;9122;48.406;9.984;2024-01-16T13:25:13;3.40;;;3.03;;
17993;SDS011;9122;48.406;9.984;2024-01-16T13:27:58;3.60;;;2.90;;
17993;SDS011;9122;48.406;9.984;2024-01-16T13:30:43;3.97;;;3.50;;
17993;SDS011;9122;48.406;9.984;2024-01-16T13:33:28;3.60;;;3.30;;
17993;SDS011;9122;48.406;9.984;2024-01-16T13:36:13;4.20;;;3.23;;
17993;SDS011;9122;48.406;9.984;2024-01-16T13:38:58;4.33;;;3.57;;
17993;SDS011;9122;48.406;9.984;2024-01-16T13:41:42;3.23;;;2.93;;
17993;SDS011;9122;48.406;9.984;2024-01-16T13:44:27;4.00;;;3.67;;
17993;SDS011;9122;48.406;9.984;2024-01-16T13:47:11;3.63;;;3.33;;
17993;SDS011;9122;48.406;9.984;2024-01-16T13:49:56;4.80;;;4.40;;
17993;SDS011;9122;48.406;9.984;2024-01-16T13:52:40;3.73;;;3.43;;
17993;SDS011;9122;48.406;9.984;2024-01-16T13:55:25;3.40;;;2.93;;
17993;SDS011;9122;48.406;9.984;2024-01-16T13:58:10;3.80;;;3.40;;
17993;SDS011;9122;48.406;9.984;2024-01-16T14:00:55;6.23;;;4.83;;
17993;SDS011;9122;48.406;9.984;2024-01-16T14:03:40;7.27;;;6.13;;
17993;SDS011;9122;48.406;9.984;2024-01-16T14:06:27;6.07;;;3.67;;
17993;SDS011;9122;48.406;9.984;2024-01-16T14:09:11;4.40;;;3.37;;
17993;SDS011;9122;48.406;9.984;2024-01-16T14:11:57;5.13;;;3.17;;
17993;SDS011;9122;48.406;9.984;2024-01-16T14:14:42;5.70;;;3.33;;
17993;SDS011;9122;48.406;9.984;2024-01-16T14:17:26;3.90;;;3.50;;
17993;SDS011;9122;48.406;9.984;2024-01-16T14:20:11;3.83;;;3.50;;
17993;SDS011;9122;48.406;9.984;2024-01-16T14:22:56;3.90;;;3.50;;
17993;SDS011;9122;48.406;9.984;2024-01-16T14:25:41;4.13;;;3.73;;
17993;SDS011;9122;48.406;9.984;2024-01-16T14:28:26;4.60;;;4.20;;
17993;SDS011;9122;48.406;9.984;2024-01-16T14:31:11;7.90;;;4.03;;
17993;SDS011;9122;48.406;9.984;2024-01-16T14:33:56;5.10;;;4.43;;
17993;SDS011;9122;48.406;9.984;2024-01-16T14:36:41;3.83;;;3.53;;
17993;SDS011;9122;48.406;9.984;2024-01-16T14:39:28;5.13;;;4.60;;
17993;SDS011;9122;48.406;9.984;2024-01-16T14:42:14;4.60;;;4.03;;
17993;SDS011;9122;48.406;9.984;2024-01-16T14:45:02;5.77;;;4.77;;
17993;SDS011;9122;48.406;9.984;2024-01-16T14:47:47;6.30;;;4.87;;
17993;SDS011;9122;48.406;9.984;2024-01-16T14:50:32;4.90;;;4.40;;
17993;SDS011;9122;48.406;9.984;2024-01-16T14:53:16;7.43;;;4.47;;
17993;SDS011;9122;48.406;9.984;2024-01-16T14:56:00;5.60;;;5.10;;
17993;SDS011;9122;48.406;9.984;2024-01-16T14:58:45;5.63;;;4.70;;
17993;SDS011;9122;48.406;9.984;2024-01-16T15:01:30;5.47;;;4.80;;
17993;SDS011;9122;48.406;9.984;2024-01-16T15:04:14;5.60;;;5.07;;
17993;SDS011;9122;48.406;9.984;2024-01-16T15:06:58;5.47;;;4.20;;
17993;SDS011;9122;48.406;9.984;2024-01-16T15:09:43;6.43;;;4.73;;
17993;SDS011;9122;48.406;9.984;2024-01-16T15:12:28;8.60;;;5.53;;
17993;SDS011;9122;48.406;9.984;2024-01-16T15:15:13;5.43;;;4.93;;
17993;SDS011;9122;48.406;9.984;2024-01-16T15:17:59;6.80;;;5.47;;
17993;SDS011;9122;48.406;9.984;2024-01-16T15:20:43;6.00;;;5.40;;
17993;SDS011;9122;48.406;9.984;2024-01-16T15:23:31;7.27;;;5.17;;
17993;SDS011;9122;48.406;9.984;2024-01-16T15:26:15;7.90;;;5.37;;
17993;SDS011;9122;48.406;9.984;2024-01-16T15:29:04;6.63;;;5.10;;
17993;SDS011;9122;48.406;9.984;2024-01-16T15:31:50;6.20;;;5.00;;
17993;SDS011;9122;48.406;9.984;2024-01-16T15:34:39;8.87;;;5.90;;
17993;SDS011;9122;48.406;9.984;2024-01-16T15:37:24;6.37;;;5.73;;
17993;SDS011;9122;48.406;9.984;2024-01-16T15:40:09;6.67;;;5.23;;
17993;SDS011;9122;48.406;9.984;2024-01-16T15:42:55;5.93;;;4.80;;
17993;SDS011;9122;48.406;9.984;2024-01-16T15:45:40;6.13;;;5.30;;
17993;SDS011;9122;48.406;9.984;2024-01-16T15:48:25;8.03;;;5.60;;
17993;SDS011;9122;48.406;9.984;2024-01-16T15:51:17;5.97;;;4.83;;
17993;SDS011;9122;48.406;9.984;2024-01-16T15:54:01;7.70;;;5.17;;
17993;SDS011;9122;48.406;9.984;2024-01-16T15:56:47;5.90;;;5.27;;
17993;SDS011;9122;48.406;9.984;2024-01-16T15:59:31;6.83;;;6.13;;
17993;SDS011;9122;48.406;9.984;2024-01-16T16:02:16;7.70;;;5.70;;
17993;SDS011;9122;48.406;9.984;2024-01-16T16:05:01;7.17;;;5.10;;
17993;SDS011;9122;48.406;9.984;2024-01-16T16:07:49;11.07;;;6.47;;
17993;SDS011;9122;48.406;9.984;2024-01-16T16:10:33;17.43;;;9.07;;
17993;SDS011;9122;48.406;9.984;2024-01-16T16:13:19;12.37;;;7.57;;
17993;SDS011;9122;48.406;9.984;2024-01-16T16:16:04;10.70;;;7.87;;
17993;SDS011;9122;48.406;9.984;2024-01-16T16:18:49;19.37;;;10.30;;
17993;SDS011;9122;48.406;9.984;2024-01-16T16:21:34;12.67;;;9.43;;
17993;SDS011;9122;48.406;9.984;2024-01-16T16:24:18;8.93;;;7.70;;
17993;SDS011;9122;48.406;9.984;2024-01-16T16:27:04;11.03;;;9.53;;
17993;SDS011;9122;48.406;9.984;2024-01-16T16:30:12;9.50;;;7.00;;
17993;SDS011;9122;48.406;9.984;2024-01-16T16:32:57;8.30;;;7.07;;
17993;SDS011;9122;48.406;9.984;2024-01-16T16:35:41;7.70;;;6.97;;
17993;SDS011;9122;48.406;9.984;2024-01-16T16:38:27;6.47;;;5.47;;
17993;SDS011;9122;48.406;9.984;2024-01-16T16:41:12;6.33;;;5.73;;
17993;SDS011;9122;48.406;9.984;2024-01-16T16:43:57;9.00;;;6.67;;
17993;SDS011;9122;48.406;9.984;2024-01-16T16:46:43;6.97;;;6.33;;
17993;SDS011;9122;48.406;9.984;2024-01-16T16:49:27;8.23;;;6.40;;
17993;SDS011;9122;48.406;9.984;2024-01-16T16:52:17;8.07;;;7.13;;
17993;SDS011;9122;48.406;9.984;2024-01-16T16:55:02;8.97;;;7.30;;
17993;SDS011;9122;48.406;9.984;2024-01-16T16:57:48;8.70;;;7.53;;
17993;SDS011;9122;48.406;9.984;2024-01-16T17:00:32;11.60;;;8.03;;
17993;SDS011;9122;48.406;9.984;2024-01-16T17:03:16;8.33;;;7.53;;
17993;SDS011;9122;48.406;9.984;2024-01-16T17:06:00;8.80;;;7.87;;